createdAt,value
2019-04-26T00:03:23.145Z,1.4
2019-04-26T00:08:46.012Z,1.5
2019-04-26T00:14:09.852Z,1.4
2019-04-26T00:19:32.035Z,1.5
2019-04-26T00:24:55.633Z,1.7
2019-04-26T00:30:19.127Z,1.9
2019-04-26T00:35:47.153Z,1.4
2019-04-26T00:41:04.951Z,1.6
2019-04-26T00:46:27.773Z,1.8
2019-04-26T00:51:50.800Z,1.9
2019-04-26T00:57:14.564Z,1.9
2019-04-26T01:02:37.365Z,2.2
2019-04-26T01:08:00.175Z,2.4
2019-04-26T01:13:24.024Z,2.6
2019-04-26T01:18:46.653Z,2.3
2019-04-26T01:24:09.457Z,2.8
2019-04-26T01:29:32.066Z,2.6
2019-04-26T01:34:54.777Z,3
2019-04-26T01:40:17.565Z,3.3
2019-04-26T01:45:40.326Z,3.4
2019-04-26T01:51:03.152Z,3.6
2019-04-26T01:56:27.064Z,3.6
2019-04-26T02:01:49.719Z,3.7
2019-04-26T02:07:12.512Z,3.7
2019-04-26T02:12:35.315Z,4
2019-04-26T02:17:58.141Z,3.4
2019-04-26T02:23:20.853Z,4.8
2019-04-26T02:28:43.591Z,6.5
2019-04-26T02:34:06.362Z,7.3
2019-04-26T02:39:30.047Z,5.6
2019-04-26T02:44:52.911Z,6.6
2019-04-26T02:50:15.680Z,8
2019-04-26T02:55:42.255Z,8.8
2019-04-26T03:01:02.203Z,7.7
2019-04-26T03:06:30.494Z,7.9
2019-04-26T03:11:52.888Z,8.4
2019-04-26T03:17:15.629Z,8
2019-04-26T03:22:39.333Z,8.6
2019-04-26T03:28:02.185Z,8.9
2019-04-26T03:33:25.154Z,9.7
2019-04-26T03:38:47.666Z,10.1
2019-04-26T03:44:10.375Z,9.7
2019-04-26T03:49:33.614Z,10.1
2019-04-26T03:54:56.913Z,9.8
2019-04-26T04:00:20.610Z,11.3
2019-04-26T04:05:44.284Z,10.2
2019-04-26T04:11:07.051Z,10.6
2019-04-26T04:16:29.882Z,12.2
2019-04-26T04:21:52.695Z,12.4
2019-04-26T04:27:15.482Z,12.1
2019-04-26T04:32:39.598Z,12
2019-04-26T04:38:08.980Z,12.1
2019-04-26T04:43:26.661Z,12.5
2019-04-26T04:48:50.637Z,13.5
2019-04-26T04:54:12.847Z,13.2
2019-04-26T04:59:36.491Z,14.9
2019-04-26T05:04:59.243Z,13.7
2019-04-26T05:10:22.050Z,14.6
2019-04-26T05:15:46.371Z,14.9
2019-04-26T05:21:08.365Z,14.6
2019-04-26T05:26:31.139Z,16.200001
2019-04-26T05:31:54.288Z,14.2
2019-04-26T05:37:16.688Z,14.8
2019-04-26T05:42:39.384Z,14.1
2019-04-26T05:48:10.462Z,13.9
2019-04-26T05:53:25.872Z,13.1
2019-04-26T05:58:48.579Z,12.3
2019-04-26T06:04:11.448Z,11.6
2019-04-26T06:09:35.107Z,10.2
2019-04-26T06:14:58.844Z,9.9
2019-04-26T06:20:22.957Z,9.1
2019-04-26T06:25:45.441Z,7.5
2019-04-26T06:31:08.167Z,7.8
2019-04-26T06:36:31.960Z,8.2
2019-04-26T06:41:55.886Z,7.7
2019-04-26T06:47:18.538Z,7.7
2019-04-26T06:52:41.269Z,7.7
2019-04-26T06:58:04.879Z,8.2
2019-04-26T07:03:26.938Z,8.8
2019-04-26T07:08:56.982Z,8.7
2019-04-26T07:14:13.440Z,8.6
2019-04-26T07:19:36.072Z,9.3
2019-04-26T07:25:00.092Z,9.3
2019-04-26T07:30:22.455Z,9.3
2019-04-26T07:35:45.202Z,9.7
2019-04-26T07:41:07.909Z,10.1
2019-04-26T07:46:30.622Z,10.9
2019-04-26T07:51:53.419Z,11.2
2019-04-26T07:57:16.178Z,12.1
2019-04-26T08:02:38.935Z,11.8
2019-04-26T08:08:01.596Z,12.1
2019-04-26T08:13:24.301Z,11.6
2019-04-26T08:18:47.813Z,11.7
2019-04-26T08:24:10.625Z,12.7
2019-04-26T08:29:34.547Z,12
2019-04-26T08:34:57.077Z,11.1
2019-04-26T08:40:25.426Z,12
2019-04-26T08:46:01.464Z,9.3
2019-04-26T08:51:09.274Z,9.6
2019-04-26T08:56:31.645Z,11.8
2019-04-26T09:01:54.301Z,12.2
2019-04-26T09:07:16.965Z,13.7
2019-04-26T09:12:39.638Z,12.2
2019-04-26T09:18:02.303Z,12.5
2019-04-26T09:23:26.017Z,14.1
2019-04-26T09:28:52.844Z,12.8
2019-04-26T09:34:13.553Z,13.7
2019-04-26T09:39:36.268Z,14.8
2019-04-26T09:44:59.944Z,13.1
2019-04-26T09:50:22.638Z,11.9
2019-04-26T09:55:45.285Z,11.1
2019-04-26T10:01:07.967Z,10.9
2019-04-26T10:06:32.190Z,12.2
2019-04-26T10:11:55.709Z,11.7
2019-04-26T10:17:18.320Z,10.6
2019-04-26T10:22:41.005Z,11.3
2019-04-26T10:28:03.783Z,10.2
2019-04-26T10:33:26.445Z,10.9
2019-04-26T10:38:49.100Z,10.8
2019-04-26T10:44:11.824Z,9.3
2019-04-26T10:49:34.441Z,9.9
2019-04-26T10:54:57.177Z,10.8
2019-04-26T11:00:19.815Z,10
2019-04-26T11:05:42.496Z,10
2019-04-26T11:11:05.143Z,10.2
2019-04-26T11:16:28.037Z,10.3
2019-04-26T11:21:50.959Z,10.5
2019-04-26T11:27:13.468Z,10.5
2019-04-26T11:32:36.705Z,11.2
2019-04-26T11:37:59.880Z,10.3
2019-04-26T11:43:22.461Z,11.3
2019-04-26T11:48:45.143Z,11.2
2019-04-26T11:54:07.875Z,11.7
2019-04-26T11:59:31.846Z,10.5
2019-04-26T12:04:55.104Z,10.7
2019-04-26T12:10:17.258Z,10.2
2019-04-26T12:15:43.655Z,9.7
2019-04-26T12:21:03.589Z,9.4
2019-04-26T12:26:29.060Z,10
2019-04-26T12:31:55.152Z,9.9
2019-04-26T12:37:19.846Z,10.1
2019-04-26T12:42:43.284Z,9.8
2019-04-26T12:48:07.899Z,9.7
2019-04-26T12:53:31.149Z,9.1
2019-04-26T12:58:52.759Z,8.6
2019-04-26T13:04:15.377Z,8.5
2019-04-26T13:09:38.126Z,8.1
2019-04-26T13:15:00.806Z,8.5
2019-04-26T13:20:24.229Z,8.8
2019-04-26T13:25:47.218Z,8.1
2019-04-26T13:31:09.865Z,7.8
2019-04-26T13:36:32.495Z,8.5
2019-04-26T13:42:02.392Z,9.1
2019-04-26T13:47:18.840Z,8.6
2019-04-26T13:52:41.604Z,7.9
2019-04-26T13:58:04.285Z,8.2
2019-04-26T14:03:31.095Z,8.5
2019-04-26T14:08:53.825Z,8.3
2019-04-26T14:14:14.955Z,7.9
2019-04-26T14:19:37.589Z,8.8
2019-04-26T14:25:00.269Z,9
2019-04-26T14:30:22.887Z,8.8
2019-04-26T14:35:50.303Z,9.2
2019-04-26T14:41:13.015Z,9.9
2019-04-26T14:46:33.595Z,9.4
2019-04-26T14:51:56.271Z,9.2
2019-04-26T14:57:24.299Z,9.7
2019-04-26T15:02:47.120Z,10.2
2019-04-26T15:08:09.399Z,10
2019-04-26T15:13:34.711Z,9.4
2019-04-26T15:18:54.548Z,9.4
2019-04-26T15:24:17.209Z,9.6
2019-04-26T15:29:39.846Z,9.6
2019-04-26T15:35:02.533Z,9.4
2019-04-26T15:40:27.319Z,9.2
2019-04-26T15:45:49.292Z,9.2
2019-04-26T15:51:12.545Z,8.7
2019-04-26T15:56:35.557Z,9.1
2019-04-26T16:01:58.199Z,8
2019-04-26T16:07:27.191Z,9.3
2019-04-26T16:12:44.510Z,8.6
2019-04-26T16:18:10.528Z,8.3
2019-04-26T16:23:39.180Z,8.3
2019-04-26T16:28:54.433Z,8
2019-04-26T16:34:16.997Z,7.6
2019-04-26T16:39:40.251Z,8.1
2019-04-26T16:45:04.510Z,7.8
2019-04-26T16:50:31.529Z,7.5
2019-04-26T16:55:53.210Z,7.2
2019-04-26T17:01:16.051Z,7.6
2019-04-26T17:06:44.244Z,8
2019-04-26T17:12:02.486Z,8.4
2019-04-26T17:17:24.943Z,8
2019-04-26T17:22:56.772Z,7.9
2019-04-26T17:28:11.922Z,8.6
2019-04-26T17:33:35.313Z,8.5
2019-04-26T17:38:57.981Z,8.8
2019-04-26T17:44:26.403Z,8.6
2019-04-26T17:49:44.156Z,8.7
2019-04-26T17:55:07.696Z,8.2
2019-04-26T18:00:45.302Z,8.9
2019-04-26T18:06:00.834Z,8.8
2019-04-26T18:11:25.152Z,8.9
2019-04-26T18:16:47.755Z,9.3
2019-04-26T18:22:12.763Z,9.3
2019-04-26T18:27:38.307Z,9.2
2019-04-26T18:32:58.032Z,9.2
2019-04-26T18:38:21.232Z,9.6
2019-04-26T18:43:44.393Z,9.6
2019-04-26T18:49:07.070Z,10.1
2019-04-26T18:54:29.725Z,10.1
2019-04-26T18:59:52.950Z,10.8
2019-04-26T19:05:15.694Z,11
2019-04-26T19:10:37.857Z,11
2019-04-26T19:16:01.637Z,11.4
2019-04-26T19:21:23.208Z,11.7
2019-04-26T19:26:49.715Z,11.8
2019-04-26T19:32:09.529Z,11.6
2019-04-26T19:37:36.645Z,12.7
2019-04-26T19:42:57.423Z,12.3
2019-04-26T19:48:20.725Z,12.1
2019-04-26T19:53:42.545Z,13.7
2019-04-26T19:59:07.334Z,12.9
2019-04-26T20:04:32.279Z,14.4
2019-04-26T20:09:56.238Z,13.1
2019-04-26T20:15:25.673Z,14.2
2019-04-26T20:20:41.574Z,13.9
2019-04-26T20:26:06.973Z,14.7
2019-04-26T20:31:27.981Z,13.7
2019-04-26T20:36:52.108Z,14.5
2019-04-26T20:42:14.288Z,14.6
2019-04-26T20:47:36.997Z,15.6
2019-04-26T20:53:02.221Z,15.7
2019-04-26T20:58:23.277Z,15.8
2019-04-26T21:03:46.300Z,16.4
2019-04-26T21:09:09.444Z,15.6
2019-04-26T21:14:32.213Z,16.700001
2019-04-26T21:19:58.492Z,16.1
2019-04-26T21:25:21.384Z,16.9
2019-04-26T21:30:44.204Z,16.299999
2019-04-26T21:36:06.834Z,15.8
2019-04-26T21:41:29.523Z,16.5
2019-04-26T21:46:54.140Z,16.4
2019-04-26T21:52:17.236Z,17.200001
2019-04-26T21:57:40.255Z,17.799999
2019-04-26T22:03:03.752Z,17.299999
2019-04-26T22:08:26.564Z,19
2019-04-26T22:13:49.319Z,18.299999
2019-04-26T22:19:12.688Z,18.200001
2019-04-26T22:24:34.123Z,18
2019-04-26T22:29:56.991Z,18.1
2019-04-26T22:35:21.588Z,17.4
2019-04-26T22:40:44.115Z,17.4
2019-04-26T22:46:06.831Z,17.200001
2019-04-26T22:51:33.444Z,17.4
2019-04-26T22:56:53.773Z,17.799999
2019-04-26T23:02:18.260Z,18
2019-04-26T23:07:39.634Z,18.6
2019-04-26T23:13:07.502Z,18.1
2019-04-26T23:18:25.985Z,18
2019-04-26T23:23:48.644Z,18.4
2019-04-26T23:29:16.149Z,18.299999
2019-04-26T23:34:37.481Z,19.4
2019-04-26T23:40:00.655Z,19
2019-04-26T23:45:24.179Z,19.200001
2019-04-26T23:50:46.814Z,19.200001
2019-04-26T23:56:09.457Z,20.700001
